Time;durP1;ratioP1;P1;durP2;ratioP2;P2;SDS_P1;SDS_P2;PMS_P1;PMS_P2;Temp;Humidity;BMP_temperature;BMP_pressure;BME280_temperature;BME280_humidity;BME280_pressure;Samples;Min_cycle;Max_cycle;Signal;HPM_P1;HPM_P2
2021/01/03 00:02:07;;;;;;;42.53;22.92;;;3.40;99.90;;;;;;5025590;28;20042;-84
2021/01/03 00:04:34;;;;;;;42.90;23.55;;;3.40;99.90;;;;;;5025134;28;20124;-84
2021/01/03 00:07:00;;;;;;;44.53;23.45;;;3.40;99.90;;;;;;5040475;28;20041;-83
2021/01/03 00:09:27;;;;;;;54.45;24.65;;;3.80;99.90;;;;;;5026436;28;20112;-84
2021/01/03 00:11:54;;;;;;;46.63;25.23;;;3.40;99.90;;;;;;5024627;28;20095;-83
2021/01/03 00:14:21;;;;;;;56.67;28.08;;;3.40;99.90;;;;;;5024688;28;20041;-84
2021/01/03 00:16:48;;;;;;;55.08;28.48;;;3.40;99.90;;;;;;5010020;28;20072;-83
2021/01/03 00:19:14;;;;;;;52.17;27.65;;;3.60;99.90;;;;;;5025582;28;21417;-83
2021/01/03 00:21:40;;;;;;;57.00;28.65;;;3.70;99.90;;;;;;5023310;28;20029;-84
2021/01/03 00:24:06;;;;;;;55.83;27.30;;;3.50;99.90;;;;;;5023672;28;20048;-83
2021/01/03 00:26:32;;;;;;;56.90;29.50;;;3.50;99.90;;;;;;5027072;28;20041;-84
2021/01/03 00:28:58;;;;;;;57.97;27.75;;;3.50;99.90;;;;;;5022220;28;20065;-84
2021/01/03 00:31:24;;;;;;;52.50;26.80;;;3.50;99.90;;;;;;5024446;28;20101;-84
2021/01/03 00:33:51;;;;;;;48.72;25.65;;;3.70;99.90;;;;;;5007405;28;20049;-83
2021/01/03 00:36:17;;;;;;;55.47;27.25;;;3.80;99.90;;;;;;5027061;28;20041;-84
2021/01/03 00:38:43;;;;;;;56.97;28.23;;;3.70;99.90;;;;;;5026959;28;20050;-83
2021/01/03 00:41:09;;;;;;;61.28;29.27;;;3.60;99.90;;;;;;5030735;28;20040;-84
2021/01/03 00:43:34;;;;;;;66.20;29.90;;;3.90;99.90;;;;;;5030820;28;20053;-83
2021/01/03 00:46:00;;;;;;;72.68;32.10;;;3.70;99.90;;;;;;5027321;28;20072;-84
2021/01/03 00:48:26;;;;;;;89.22;35.08;;;3.70;99.90;;;;;;5029071;28;20033;-84
2021/01/03 00:50:52;;;;;;;84.88;34.55;;;3.70;99.90;;;;;;5031112;28;20034;-82
2021/01/03 00:53:17;;;;;;;110.38;41.17;;;3.80;99.90;;;;;;5026143;28;20045;-84
2021/01/03 00:55:43;;;;;;;140.63;43.33;;;4.00;99.90;;;;;;5028340;28;20044;-83
2021/01/03 00:58:09;;;;;;;138.85;46.30;;;3.70;99.90;;;;;;5030335;28;20108;-83
2021/01/03 01:00:35;;;;;;;171.30;48.13;;;3.70;99.90;;;;;;5030168;28;20041;-83
2021/01/03 01:03:04;;;;;;;154.88;48.63;;;3.80;99.90;;;;;;5029562;28;20087;-84
2021/01/03 01:05:30;;;;;;;165.77;48.50;;;3.70;99.90;;;;;;5028816;28;20471;-83
2021/01/03 01:07:56;;;;;;;155.95;47.17;;;3.60;99.90;;;;;;5030035;28;20033;-82
2021/01/03 01:10:25;;;;;;;156.75;49.10;;;3.70;99.90;;;;;;5026175;28;20376;-82
2021/01/03 01:12:53;;;;;;;165.95;49.45;;;3.70;99.90;;;;;;5027618;28;20072;-84
2021/01/03 01:15:20;;;;;;;159.05;48.40;;;3.60;99.90;;;;;;5028504;28;20129;-84
2021/01/03 01:17:48;;;;;;;140.20;45.83;;;3.70;99.90;;;;;;5028858;28;20444;-83
2021/01/03 01:20:16;;;;;;;140.23;45.97;;;3.60;99.90;;;;;;5036231;28;20041;-84
2021/01/03 01:22:42;;;;;;;150.40;45.80;;;3.60;99.90;;;;;;5029294;28;20049;-83
2021/01/03 01:25:10;;;;;;;133.32;44.95;;;3.50;99.90;;;;;;5036158;28;20041;-84
2021/01/03 01:27:35;;;;;;;131.95;44.15;;;3.60;99.90;;;;;;5026092;28;20038;-83
2021/01/03 01:30:03;;;;;;;129.88;45.08;;;3.90;99.90;;;;;;5028918;28;20037;-83
2021/01/03 01:32:28;;;;;;;143.32;46.33;;;3.70;99.90;;;;;;5029241;28;20041;-83
2021/01/03 01:34:54;;;;;;;134.65;45.50;;;3.60;99.90;;;;;;5030511;28;20045;-83
2021/01/03 01:37:20;;;;;;;135.30;47.72;;;3.80;99.90;;;;;;5026693;28;20043;-84
2021/01/03 01:39:46;;;;;;;118.00;45.20;;;3.80;99.90;;;;;;5029692;28;20416;-83
2021/01/03 01:42:11;;;;;;;126.53;45.08;;;3.80;99.90;;;;;;5028675;28;20121;-83
2021/01/03 01:44:37;;;;;;;140.43;45.72;;;3.90;99.90;;;;;;5029351;28;20055;-84
2021/01/03 01:47:11;;;;;;;123.50;43.80;;;3.70;99.90;;;;;;5029633;28;20069;-83
2021/01/03 01:49:40;;;;;;;124.65;45.20;;;3.80;99.90;;;;;;5027540;28;20207;-84
2021/01/03 01:52:08;;;;;;;137.32;46.42;;;3.90;99.90;;;;;;5025744;28;20388;-82
2021/01/03 01:54:37;;;;;;;109.80;43.38;;;3.90;99.90;;;;;;5027648;28;20045;-83
2021/01/03 01:57:09;;;;;;;100.70;40.47;;;3.90;99.90;;;;;;5025345;28;20404;-83
2021/01/03 01:59:49;;;;;;;112.05;43.00;;;3.80;99.90;;;;;;5027604;28;20048;-82
2021/01/03 02:02:29;;;;;;;114.07;42.92;;;3.80;99.90;;;;;;5027189;28;20057;-82
2021/01/03 02:05:02;;;;;;;112.05;42.92;;;3.80;99.90;;;;;;5029141;28;20047;-83
2021/01/03 02:07:32;;;;;;;117.20;42.00;;;3.80;99.90;;;;;;5026211;28;20030;-84
2021/01/03 02:10:23;;;;;;;115.50;43.97;;;3.90;99.90;;;;;;5028554;28;20037;-83
2021/01/03 02:13:02;;;;;;;122.00;45.00;;;3.80;99.90;;;;;;5027711;28;20080;-83
2021/01/03 02:15:31;;;;;;;113.43;43.22;;;3.90;99.90;;;;;;5029126;28;20447;-82
2021/01/03 02:18:00;;;;;;;109.75;42.33;;;3.90;99.90;;;;;;5021127;28;20120;-83
2021/01/03 02:20:36;;;;;;;119.18;44.97;;;3.90;99.90;;;;;;5028543;28;20037;-83
2021/01/03 02:23:06;;;;;;;111.55;44.45;;;3.90;99.90;;;;;;5025620;28;20029;-84
2021/01/03 02:25:32;;;;;;;109.32;42.63;;;3.80;99.90;;;;;;5028605;28;20057;-82
2021/01/03 02:28:04;;;;;;;109.47;43.03;;;3.80;99.90;;;;;;5028784;28;20042;-84
2021/01/03 02:30:30;;;;;;;102.20;42.35;;;3.80;99.90;;;;;;5026798;28;20045;-83
2021/01/03 02:33:20;;;;;;;115.18;43.95;;;3.70;99.90;;;;;;5028987;28;20044;-85
2021/01/03 02:35:48;;;;;;;101.72;41.97;;;3.80;99.90;;;;;;5028156;28;20053;-83
2021/01/03 02:38:23;;;;;;;107.05;43.63;;;3.90;99.90;;;;;;5027099;28;20133;-83
2021/01/03 02:40:48;;;;;;;;;;;3.90;99.90;;;;;;5027536;28;20093;-83
2021/01/03 02:43:14;;;;;;;114.18;43.58;;;3.70;99.90;;;;;;5030580;28;19921;-84
2021/01/03 02:45:40;;;;;;;115.90;43.67;;;3.70;99.90;;;;;;5028466;28;20037;-82
2021/01/03 02:48:10;;;;;;;108.53;42.72;;;3.70;99.90;;;;;;5027442;28;20040;-82
2021/01/03 02:50:36;;;;;;;105.22;43.20;;;3.70;99.90;;;;;;5022454;28;20100;-83
2021/01/03 02:53:02;;;;;;;110.50;45.45;;;3.70;99.90;;;;;;5026625;28;20255;-85
2021/01/03 02:55:28;;;;;;;118.47;44.67;;;3.90;99.90;;;;;;5026470;28;20041;-83
2021/01/03 02:57:54;;;;;;;119.43;44.75;;;3.80;99.90;;;;;;5028220;28;20090;-83
2021/01/03 03:00:25;;;;;;;112.07;42.53;;;3.90;99.90;;;;;;5028594;28;20142;-82
2021/01/03 03:02:51;;;;;;;113.68;43.60;;;3.80;99.90;;;;;;5029015;28;20045;-84
2021/01/03 03:05:18;;;;;;;123.60;43.75;;;3.80;99.90;;;;;;5011773;28;20559;-84
2021/01/03 03:07:44;;;;;;;115.32;44.30;;;3.80;99.90;;;;;;5028266;28;20125;-82
2021/01/03 03:10:11;;;;;;;118.00;43.08;;;3.70;99.90;;;;;;5021975;28;20116;-82
2021/01/03 03:12:37;;;;;;;117.68;44.42;;;3.80;99.90;;;;;;5026696;28;20175;-82
2021/01/03 03:15:07;;;;;;;106.70;42.83;;;3.70;99.90;;;;;;5028741;28;20037;-82
2021/01/03 03:17:34;;;;;;;111.28;42.78;;;3.70;99.90;;;;;;5010922;28;20077;-83
2021/01/03 03:20:00;;;;;;;102.90;42.72;;;3.70;99.90;;;;;;5027587;28;20091;-83
2021/01/03 03:22:25;;;;;;;113.07;45.08;;;3.70;99.90;;;;;;5028309;28;20176;-83
2021/01/03 03:24:51;;;;;;;107.28;42.83;;;4.40;99.90;;;;;;5027343;28;20844;-83
2021/01/03 03:27:17;;;;;;;108.32;42.03;;;3.70;99.90;;;;;;5042619;28;20052;-83
2021/01/03 03:29:42;;;;;;;105.53;42.92;;;3.90;99.90;;;;;;5029144;28;20072;-84
2021/01/03 03:32:24;;;;;;;108.72;41.88;;;3.70;99.90;;;;;;5027345;28;20033;-83
2021/01/03 03:34:49;;;;;;;107.95;42.55;;;3.70;99.90;;;;;;5027755;28;20049;-84
2021/01/03 03:37:15;;;;;;;102.20;40.80;;;3.90;99.90;;;;;;5042825;28;20831;-83
2021/01/03 03:39:41;;;;;;;116.03;44.97;;;3.90;99.90;;;;;;5028621;28;20508;-84
2021/01/03 03:42:07;;;;;;;108.72;44.70;;;3.70;99.90;;;;;;5023584;28;20046;-83
2021/01/03 03:44:33;;;;;;;109.20;43.45;;;3.70;99.90;;;;;;5028455;28;20788;-83
2021/01/03 03:47:03;;;;;;;116.93;45.58;;;3.70;99.90;;;;;;5028337;28;20044;-83
2021/01/03 03:49:32;;;;;;;111.32;43.47;;;3.80;99.90;;;;;;5029191;28;20223;-83
2021/01/03 03:52:00;;;;;;;113.70;43.83;;;3.90;99.90;;;;;;5027223;28;20037;-83
2021/01/03 03:54:26;;;;;;;123.75;45.55;;;3.90;99.90;;;;;;5025296;28;20065;-83
2021/01/03 03:56:54;;;;;;;111.53;44.58;;;3.70;99.90;;;;;;5027249;28;20433;-84
2021/01/03 03:59:21;;;;;;;116.75;45.15;;;3.80;99.90;;;;;;5027315;28;20120;-83
2021/01/03 04:01:47;;;;;;;121.32;47.20;;;3.80;99.90;;;;;;5027648;28;20455;-83
2021/01/03 04:04:13;;;;;;;111.57;45.13;;;3.70;99.90;;;;;;5028007;28;20061;-83
2021/01/03 04:06:39;;;;;;;109.47;42.05;;;3.60;99.90;;;;;;5027387;28;20102;-84
2021/01/03 04:09:05;;;;;;;116.07;43.75;;;3.60;99.90;;;;;;5026260;28;20395;-83
2021/01/03 04:11:32;;;;;;;114.25;45.20;;;3.80;99.90;;;;;;5028002;28;20064;-83
2021/01/03 04:13:58;;;;;;;104.05;41.72;;;3.60;99.90;;;;;;5031313;28;20058;-83
2021/01/03 04:16:24;;;;;;;107.85;42.15;;;3.60;99.90;;;;;;5031497;28;20045;-84
2021/01/03 04:18:50;;;;;;;111.35;43.05;;;3.60;99.90;;;;;;5040622;28;20041;-83
2021/01/03 04:21:17;;;;;;;103.20;41.50;;;3.70;99.90;;;;;;5037243;28;20040;-83
2021/01/03 04:23:42;;;;;;;106.68;40.80;;;4.30;99.90;;;;;;5030492;28;20143;-84
2021/01/03 04:26:18;;;;;;;101.43;41.08;;;3.70;99.90;;;;;;5029691;28;20477;-84
2021/01/03 04:28:43;;;;;;;;;;;3.60;99.90;;;;;;5031757;28;22127;-83
2021/01/03 04:31:09;;;;;;;117.07;44.15;;;3.60;99.90;;;;;;5032379;28;19956;-82
2021/01/03 04:33:35;;;;;;;113.70;44.58;;;3.70;99.90;;;;;;5032171;28;20112;-83
2021/01/03 04:36:01;;;;;;;111.63;43.53;;;3.50;99.90;;;;;;5030879;28;20049;-83
2021/01/03 04:38:27;;;;;;;111.72;44.00;;;3.50;99.90;;;;;;5030944;28;20419;-83
2021/01/03 04:40:56;;;;;;;106.13;43.40;;;3.60;99.90;;;;;;5033558;28;20037;-83
2021/01/03 04:43:23;;;;;;;110.45;42.97;;;3.60;99.90;;;;;;5046870;28;20103;-83
2021/01/03 04:45:59;;;;;;;112.15;44.20;;;3.60;99.90;;;;;;5031950;28;20068;-83
2021/01/03 04:48:28;;;;;;;122.50;45.63;;;3.70;99.90;;;;;;5031435;28;20041;-84
2021/01/03 04:51:17;;;;;;;110.10;43.30;;;3.50;99.90;;;;;;5029701;28;20056;-83
2021/01/03 04:54:03;;;;;;;107.75;41.63;;;3.50;99.90;;;;;;5030788;28;20038;-83
2021/01/03 04:56:40;;;;;;;106.03;42.75;;;3.50;99.90;;;;;;5043580;28;20033;-83
2021/01/03 04:59:28;;;;;;;98.13;42.47;;;3.60;99.90;;;;;;5029981;28;20428;-83
2021/01/03 05:02:16;;;;;;;117.22;43.45;;;3.60;99.90;;;;;;5013744;28;20487;-84
2021/01/03 05:04:50;;;;;;;118.13;44.50;;;3.50;99.90;;;;;;5029742;28;20041;-84
2021/01/03 05:07:25;;;;;;;117.15;44.47;;;3.50;99.90;;;;;;5028310;28;20127;-83
2021/01/03 05:09:54;;;;;;;109.60;44.20;;;3.70;99.90;;;;;;5031033;28;20037;-83
2021/01/03 05:12:25;;;;;;;115.60;43.88;;;3.60;99.90;;;;;;5031687;28;20354;-83
2021/01/03 05:14:53;;;;;;;113.40;43.28;;;3.70;99.90;;;;;;5029657;28;20045;-84
2021/01/03 05:17:20;;;;;;;116.68;44.95;;;3.60;99.90;;;;;;5028914;28;20052;-83
2021/01/03 05:19:47;;;;;;;103.90;42.42;;;3.50;99.90;;;;;;5031385;28;20056;-84
2021/01/03 05:22:36;;;;;;;111.40;42.70;;;3.60;99.90;;;;;;5030180;28;20037;-84
2021/01/03 05:25:05;;;;;;;110.47;43.80;;;3.60;99.90;;;;;;5029813;28;20043;-84
2021/01/03 05:27:32;;;;;;;106.72;43.45;;;3.60;99.90;;;;;;5029864;28;20063;-83
2021/01/03 05:30:14;;;;;;;98.10;38.17;;;3.60;99.90;;;;;;5029979;28;20390;-84
2021/01/03 05:32:40;;;;;;;111.88;44.25;;;3.70;99.90;;;;;;5031078;28;20102;-83
2021/01/03 05:35:19;;;;;;;111.32;44.60;;;3.60;99.90;;;;;;5029610;28;20054;-84
2021/01/03 05:37:45;;;;;;;115.30;44.33;;;3.60;99.90;;;;;;5030089;28;20034;-84
2021/01/03 05:40:25;;;;;;;109.13;44.03;;;3.60;99.90;;;;;;5030739;28;20037;-83
2021/01/03 05:43:12;;;;;;;110.40;43.13;;;3.60;99.90;;;;;;5028440;28;20052;-84
2021/01/03 05:46:03;;;;;;;110.95;43.42;;;3.60;99.90;;;;;;5026873;28;20042;-84
2021/01/03 05:48:36;;;;;;;99.40;40.65;;;3.60;99.90;;;;;;5027727;28;20045;-84
2021/01/03 05:51:02;;;;;;;123.65;46.17;;;3.60;99.90;;;;;;5029568;28;20033;-84
2021/01/03 05:53:29;;;;;;;115.57;42.53;;;3.60;99.90;;;;;;5029864;28;20034;-83
2021/01/03 05:56:03;;;;;;;110.28;43.08;;;4.10;99.90;;;;;;5030889;28;20515;-84
2021/01/03 05:58:45;;;;;;;111.20;44.05;;;3.60;99.90;;;;;;5029757;28;20064;-83
2021/01/03 06:01:21;;;;;;;118.45;46.53;;;3.60;99.90;;;;;;5028535;28;20037;-83
2021/01/03 06:04:23;;;;;;;110.72;43.33;;;3.60;99.90;;;;;;5043640;28;20480;-84
2021/01/03 06:06:51;;;;;;;113.88;44.60;;;3.70;99.90;;;;;;5028186;28;20049;-84
2021/01/03 06:09:31;;;;;;;106.75;43.20;;;3.70;99.90;;;;;;5028335;28;20037;-84
2021/01/03 06:12:13;;;;;;;111.88;45.33;;;3.70;99.90;;;;;;5030167;28;20068;-83
2021/01/03 06:14:39;;;;;;;110.63;44.45;;;3.70;99.90;;;;;;5028942;28;20045;-83
2021/01/03 06:17:12;;;;;;;107.43;44.55;;;3.80;99.90;;;;;;5027719;28;20034;-83
2021/01/03 06:19:55;;;;;;;106.25;42.33;;;3.70;99.90;;;;;;5028960;28;20416;-84
2021/01/03 06:22:39;;;;;;;89.22;36.88;;;3.80;99.90;;;;;;5028851;28;20042;-83
2021/01/03 06:25:20;;;;;;;116.57;46.35;;;3.80;99.90;;;;;;5029182;28;20091;-85
2021/01/03 06:27:48;;;;;;;111.38;43.88;;;3.80;99.90;;;;;;5028834;28;20045;-83
2021/01/03 06:30:17;;;;;;;114.53;46.17;;;3.80;99.90;;;;;;5029369;28;20037;-83
2021/01/03 06:32:52;;;;;;;105.70;44.75;;;3.80;99.90;;;;;;5025609;28;20041;-83
2021/01/03 06:35:31;;;;;;;97.85;41.17;;;3.80;99.90;;;;;;5021424;28;20522;-84
2021/01/03 06:38:15;;;;;;;113.25;45.95;;;3.80;99.90;;;;;;5041725;28;20419;-84
2021/01/03 06:41:12;;;;;;;113.18;45.03;;;3.80;99.90;;;;;;5029502;28;20098;-84
2021/01/03 06:43:43;;;;;;;117.57;45.72;;;3.80;99.90;;;;;;5028206;28;20053;-83
2021/01/03 06:46:25;;;;;;;109.40;43.15;;;3.80;99.90;;;;;;5029792;28;20060;-83
2021/01/03 06:49:14;;;;;;;120.03;47.38;;;3.80;99.90;;;;;;5011849;28;20049;-83
2021/01/03 06:51:58;;;;;;;120.80;47.30;;;3.90;99.90;;;;;;5029645;28;20799;-83
2021/01/03 06:54:48;;;;;;;112.60;44.72;;;3.80;99.90;;;;;;5029382;28;20038;-84
2021/01/03 06:57:39;;;;;;;110.85;45.13;;;3.80;99.90;;;;;;5027327;28;20381;-84
2021/01/03 07:00:19;;;;;;;107.95;42.60;;;3.90;99.90;;;;;;5027841;28;20053;-84
2021/01/03 07:03:04;;;;;;;109.65;44.95;;;4.20;99.90;;;;;;5042252;28;20591;-83
2021/01/03 07:05:30;;;;;;;107.47;45.03;;;4.00;99.90;;;;;;5030542;28;20506;-83
2021/01/03 07:08:07;;;;;;;100.07;39.75;;;4.00;99.90;;;;;;5028444;28;20060;-82
2021/01/03 07:10:39;;;;;;;106.35;43.85;;;3.90;99.90;;;;;;5028348;28;20037;-82
2021/01/03 07:13:24;;;;;;;108.00;42.67;;;3.90;99.90;;;;;;5024556;28;20382;-83
2021/01/03 07:15:49;;;;;;;113.20;45.90;;;3.90;99.90;;;;;;5023625;28;20048;-82
2021/01/03 07:18:59;;;;;;;106.75;44.28;;;4.20;99.90;;;;;;5034205;28;20041;-83
2021/01/03 07:21:39;;;;;;;104.05;43.13;;;3.80;99.90;;;;;;4967458;28;20150;-84
2021/01/03 07:24:31;;;;;;;111.43;45.80;;;4.00;99.90;;;;;;4961063;28;20065;-83
2021/01/03 07:27:24;;;;;;;105.15;44.08;;;3.80;99.90;;;;;;4964203;28;20655;-83
2021/01/03 07:30:03;;;;;;;112.82;44.47;;;3.80;99.90;;;;;;4967410;28;20420;-82
2021/01/03 07:32:37;;;;;;;94.60;42.00;;;3.80;99.90;;;;;;4966932;28;20113;-83
2021/01/03 07:35:21;;;;;;;104.95;41.40;;;3.80;99.90;;;;;;4966759;28;20050;-83
2021/01/03 07:37:51;;;;;;;101.32;42.67;;;3.60;99.90;;;;;;4964616;28;20059;-84
2021/01/03 07:40:20;;;;;;;93.13;39.28;;;3.70;99.90;;;;;;4966206;28;20085;-83
2021/01/03 07:42:45;;;;;;;90.82;38.97;;;4.00;99.90;;;;;;4950921;28;20102;-83
2021/01/03 07:45:14;;;;;;;104.97;42.35;;;3.70;99.90;;;;;;4967599;28;20054;-83
2021/01/03 07:47:44;;;;;;;96.43;42.00;;;3.70;99.90;;;;;;4946736;28;20205;-83
2021/01/03 07:50:26;;;;;;;98.60;41.63;;;3.70;99.90;;;;;;4967133;28;20047;-84
2021/01/03 07:52:57;;;;;;;90.90;40.80;;;3.70;99.90;;;;;;4965210;28;20046;-84
2021/01/03 07:55:26;;;;;;;87.65;36.53;;;3.60;99.90;;;;;;4966986;28;20066;-83
2021/01/03 07:57:58;;;;;;;89.45;38.75;;;3.80;99.90;;;;;;5014981;28;20126;-83
2021/01/03 08:00:26;;;;;;;86.15;35.92;;;3.60;99.90;;;;;;5026968;28;20407;-84
2021/01/03 08:03:34;;;;;;;75.40;34.92;;;3.60;99.90;;;;;;5027243;28;20060;-84
2021/01/03 08:06:10;;;;;;;75.45;33.83;;;3.60;99.90;;;;;;5027964;28;20038;-84
2021/01/03 08:08:36;;;;;;;82.28;34.22;;;3.60;99.90;;;;;;5026467;28;20037;-84
2021/01/03 08:11:41;;;;;;;75.90;35.97;;;3.70;99.90;;;;;;5026413;28;20037;-82
2021/01/03 08:14:29;;;;;;;75.95;34.35;;;3.70;99.90;;;;;;5025470;28;20057;-84
2021/01/03 08:17:00;;;;;;;76.45;35.45;;;3.70;99.90;;;;;;5027585;28;20526;-82
2021/01/03 08:19:27;;;;;;;82.13;36.03;;;3.90;99.90;;;;;;5043129;28;20038;-81
2021/01/03 08:21:59;;;;;;;80.65;35.63;;;3.60;99.90;;;;;;5025972;28;20037;-81
2021/01/03 08:24:29;;;;;;;72.50;33.63;;;3.80;99.90;;;;;;5027316;28;20503;-82
2021/01/03 08:27:14;;;;;;;80.65;37.17;;;3.70;99.90;;;;;;5027098;28;20045;-83
2021/01/03 08:29:48;;;;;;;74.63;34.40;;;3.60;99.90;;;;;;5027353;28;20214;-86
2021/01/03 08:32:29;;;;;;;73.73;33.50;;;3.70;99.90;;;;;;5026328;28;20029;-83
2021/01/03 08:35:01;;;;;;;75.85;33.20;;;3.60;99.90;;;;;;5008950;28;20049;-83
2021/01/03 08:37:35;;;;;;;58.55;25.45;;;3.70;99.90;;;;;;5009444;28;20408;-84
2021/01/03 08:40:16;;;;;;;76.80;36.25;;;3.70;99.90;;;;;;5027582;28;20200;-81
2021/01/03 08:42:48;;;;;;;70.15;32.28;;;3.80;99.90;;;;;;5004974;28;21201;-86
2021/01/03 08:45:35;;;;;;;67.55;31.70;;;3.90;99.90;;;;;;5025152;28;20175;-86
2021/01/03 08:48:54;;;;;;;73.97;34.28;;;3.90;99.90;;;;;;5024183;28;20026;-87
2021/01/03 08:51:40;;;;;;;71.20;33.72;;;3.80;99.90;;;;;;5024518;28;20769;-85
2021/01/03 08:54:11;;;;;;;73.68;34.15;;;3.80;99.90;;;;;;5026023;28;20079;-87
2021/01/03 08:57:10;;;;;;;73.20;32.67;;;4.00;99.90;;;;;;5021953;28;20412;-84
2021/01/03 08:59:35;;;;;;;65.07;31.30;;;3.90;99.90;;;;;;5029385;28;20049;-82
2021/01/03 09:02:01;;;;;;;71.97;33.20;;;3.80;99.90;;;;;;5028945;28;20054;-82
2021/01/03 09:04:28;;;;;;;76.00;34.05;;;3.80;99.90;;;;;;5032975;28;20103;-86
2021/01/03 09:06:57;;;;;;;70.22;33.88;;;3.90;99.90;;;;;;5029939;28;20037;-83
2021/01/03 09:09:30;;;;;;;70.95;34.88;;;3.90;99.90;;;;;;5029184;28;20106;-83
2021/01/03 09:12:02;;;;;;;73.95;34.67;;;3.90;99.90;;;;;;5029974;28;20034;-83
2021/01/03 09:14:36;;;;;;;75.93;33.88;;;3.90;99.90;;;;;;5043737;28;20053;-83
2021/01/03 09:17:07;;;;;;;64.47;32.83;;;3.90;99.90;;;;;;5029532;28;20060;-84
2021/01/03 09:19:56;;;;;;;67.70;31.60;;;3.80;99.90;;;;;;5044583;28;20045;-84
2021/01/03 09:22:49;;;;;;;71.63;34.03;;;3.90;99.90;;;;;;5028765;28;20112;-85
2021/01/03 09:25:32;;;;;;;65.95;33.17;;;3.90;99.90;;;;;;5029520;28;20054;-84
2021/01/03 09:28:12;;;;;;;69.35;33.15;;;3.90;99.90;;;;;;5034898;28;20787;-84
2021/01/03 09:30:41;;;;;;;66.65;31.77;;;3.90;99.90;;;;;;5036775;28;20108;-84
2021/01/03 09:33:15;;;;;;;65.53;31.15;;;4.20;99.90;;;;;;5028037;28;20030;-79
2021/01/03 09:35:59;;;;;;;62.97;31.07;;;4.10;99.90;;;;;;5026901;28;20412;-79
2021/01/03 09:39:00;;;;;;;69.93;33.22;;;4.00;99.90;;;;;;5027693;28;20291;-84
2021/01/03 09:41:55;;;;;;;65.50;31.13;;;4.00;99.90;;;;;;4970136;28;20129;-78
2021/01/03 09:44:40;;;;;;;64.05;32.50;;;4.00;99.90;;;;;;4968134;28;20057;-80
2021/01/03 09:47:12;;;;;;;67.90;32.35;;;4.00;99.90;;;;;;4968189;28;20054;-77
2021/01/03 09:49:49;;;;;;;57.95;29.60;;;4.00;99.90;;;;;;4950857;28;20059;-80
2021/01/03 09:52:34;;;;;;;60.67;31.00;;;4.10;99.90;;;;;;4947216;28;20105;-81
2021/01/03 09:55:02;;;;;;;68.13;31.92;;;4.10;99.90;;;;;;4966123;28;20055;-85
2021/01/03 09:57:53;;;;;;;61.88;32.35;;;4.00;99.90;;;;;;4967715;28;20049;-83
2021/01/03 10:01:05;;;;;;;53.63;26.08;;;4.00;99.90;;;;;;4952451;28;20046;-82
2021/01/03 10:03:41;;;;;;;64.25;31.75;;;4.00;99.90;;;;;;4964301;28;20137;-83
2021/01/03 10:06:22;;;;;;;38.75;19.17;;;4.00;99.90;;;;;;4969206;28;20058;-80
2021/01/03 10:09:05;;;;;;;58.50;31.05;;;5.60;99.90;;;;;;4966533;28;20074;-84
2021/01/03 10:11:32;;;;;;;56.45;29.38;;;5.30;99.90;;;;;;4964701;28;20069;-85
2021/01/03 10:14:04;;;;;;;64.47;30.25;;;4.80;99.90;;;;;;4968420;28;20124;-84
2021/01/03 10:16:33;;;;;;;62.17;29.90;;;4.70;99.90;;;;;;4967475;28;20142;-86
2021/01/03 10:18:59;;;;;;;59.13;31.45;;;4.40;99.90;;;;;;4953352;28;20409;-83
2021/01/03 10:21:39;;;;;;;63.67;30.40;;;4.30;99.90;;;;;;4987282;28;20049;-82
2021/01/03 10:24:26;;;;;;;62.65;31.88;;;4.30;99.90;;;;;;5028951;28;20069;-82
2021/01/03 10:27:04;;;;;;;54.63;26.77;;;4.20;99.90;;;;;;5028591;28;20049;-83
2021/01/03 10:29:32;;;;;;;59.75;30.88;;;4.20;99.90;;;;;;5030548;28;20075;-82
2021/01/03 10:31:58;;;;;;;50.53;27.42;;;4.20;99.90;;;;;;5024851;28;20529;-82
2021/01/03 10:34:24;;;;;;;53.47;26.98;;;4.20;99.90;;;;;;5034745;28;20057;-79
2021/01/03 10:36:58;;;;;;;57.15;27.00;;;4.30;99.90;;;;;;5028999;28;20040;-78
2021/01/03 10:39:25;;;;;;;51.70;26.63;;;4.30;99.90;;;;;;5024607;28;20124;-82
2021/01/03 10:41:51;;;;;;;59.92;27.67;;;4.20;99.90;;;;;;5029325;28;20504;-81
2021/01/03 10:44:17;;;;;;;53.50;26.60;;;4.30;99.90;;;;;;5024749;28;20170;-84
2021/01/03 10:46:47;;;;;;;49.22;26.77;;;4.30;99.90;;;;;;5020333;28;20145;-84
2021/01/03 10:49:12;;;;;;;52.33;26.58;;;4.30;99.90;;;;;;5027769;28;20092;-80
2021/01/03 10:51:41;;;;;;;47.47;23.77;;;4.30;99.90;;;;;;5013753;28;20061;-80
2021/01/03 10:54:12;;;;;;;52.78;26.15;;;4.20;99.90;;;;;;5011345;28;20053;-80
2021/01/03 10:56:38;;;;;;;50.80;26.35;;;4.30;99.90;;;;;;5012867;28;20080;-81
2021/01/03 10:59:05;;;;;;;48.75;23.70;;;4.40;99.90;;;;;;5030596;28;20443;-81
2021/01/03 11:01:31;;;;;;;47.20;23.42;;;4.60;99.90;;;;;;5029523;28;20222;-84
2021/01/03 11:03:57;;;;;;;43.63;22.60;;;4.80;99.90;;;;;;5026953;28;20632;-84
2021/01/03 11:06:23;;;;;;;48.30;23.95;;;4.70;99.90;;;;;;5031284;28;20041;-83
2021/01/03 11:08:48;;;;;;;45.50;23.52;;;4.70;99.80;;;;;;5028430;28;20041;-83
2021/01/03 11:11:19;;;;;;;45.42;21.92;;;4.60;99.80;;;;;;5027307;28;20069;-85
2021/01/03 11:13:45;;;;;;;46.20;23.40;;;4.60;99.80;;;;;;5032135;28;20060;-84
2021/01/03 11:16:11;;;;;;;48.03;24.10;;;4.50;99.90;;;;;;5030747;28;20037;-84
2021/01/03 11:18:37;;;;;;;50.78;25.10;;;4.60;99.80;;;;;;5027271;28;20043;-85
2021/01/03 11:21:02;;;;;;;54.75;25.85;;;4.60;99.80;;;;;;5028749;28;20112;-83
2021/01/03 11:23:28;;;;;;;41.88;19.50;;;4.50;99.90;;;;;;5029975;28;20049;-83
2021/01/03 11:25:55;;;;;;;45.03;22.15;;;4.60;99.60;;;;;;5030424;28;20100;-83
2021/01/03 11:28:22;;;;;;;49.97;24.10;;;4.60;99.80;;;;;;5016708;28;20042;-83
2021/01/03 11:30:49;;;;;;;44.88;21.63;;;4.60;99.80;;;;;;5029497;28;20133;-85
2021/01/03 11:33:15;;;;;;;43.58;21.38;;;4.70;99.50;;;;;;5030523;28;20072;-85
2021/01/03 11:35:41;;;;;;;35.85;19.10;;;4.70;99.30;;;;;;5030483;28;20091;-85
2021/01/03 11:38:06;;;;;;;35.13;18.48;;;4.60;98.50;;;;;;5029078;28;20100;-83
2021/01/03 11:40:32;;;;;;;33.15;18.00;;;4.70;98.30;;;;;;5029092;28;20076;-83
2021/01/03 11:42:58;;;;;;;32.97;17.10;;;4.60;98.60;;;;;;5030361;28;20048;-83
2021/01/03 11:45:24;;;;;;;21.17;11.88;;;4.60;98.70;;;;;;5029157;28;20061;-84
2021/01/03 11:47:50;;;;;;;19.38;12.77;;;4.60;97.30;;;;;;5030447;28;20095;-84
2021/01/03 11:50:19;;;;;;;18.60;11.00;;;4.90;96.90;;;;;;5028833;28;20033;-83
2021/01/03 11:52:45;;;;;;;15.18;9.18;;;4.60;96.30;;;;;;5028571;28;20065;-84
2021/01/03 11:55:15;;;;;;;13.57;8.68;;;4.50;96.40;;;;;;5030329;28;20452;-83
2021/01/03 11:57:40;;;;;;;12.18;8.02;;;4.60;95.80;;;;;;5012499;28;20049;-86
2021/01/03 12:00:11;;;;;;;14.30;9.57;;;4.60;95.40;;;;;;5029561;28;20124;-83
2021/01/03 12:02:37;;;;;;;19.58;9.73;;;4.50;95.30;;;;;;5029038;28;20479;-85
2021/01/03 12:05:05;;;;;;;14.05;8.18;;;4.50;96.00;;;;;;5008933;28;20076;-84
2021/01/03 12:07:30;;;;;;;13.68;7.93;;;4.50;95.90;;;;;;5025619;28;20049;-83
2021/01/03 12:09:56;;;;;;;12.75;8.20;;;4.40;95.60;;;;;;5025474;28;20469;-84
2021/01/03 12:12:22;;;;;;;11.70;7.25;;;4.50;95.40;;;;;;5025276;28;20149;-85
2021/01/03 12:14:49;;;;;;;11.60;8.02;;;4.50;95.00;;;;;;5035572;28;20129;-84
2021/01/03 12:17:20;;;;;;;12.18;8.52;;;4.50;95.10;;;;;;5030295;28;20393;-85
2021/01/03 12:19:48;;;;;;;11.80;8.82;;;4.40;95.20;;;;;;5029133;28;20034;-86
2021/01/03 12:22:14;;;;;;;10.05;7.00;;;4.40;95.30;;;;;;5028576;28;20045;-85
2021/01/03 12:24:40;;;;;;;12.23;8.05;;;4.40;95.20;;;;;;5029539;28;20041;-83
2021/01/03 12:27:11;;;;;;;10.48;7.68;;;4.50;94.90;;;;;;5028382;28;20076;-83
2021/01/03 12:29:37;;;;;;;9.13;7.10;;;4.50;95.10;;;;;;5028699;28;20047;-83
2021/01/03 12:32:08;;;;;;;8.95;6.47;;;4.50;94.20;;;;;;5028984;28;20044;-82
2021/01/03 12:34:34;;;;;;;8.52;5.70;;;4.60;94.40;;;;;;5032521;28;20489;-83
2021/01/03 12:37:07;;;;;;;7.88;5.95;;;4.50;93.40;;;;;;5019866;28;20045;-85
2021/01/03 12:39:40;;;;;;;8.65;6.28;;;4.30;93.60;;;;;;5013651;28;20133;-83
2021/01/03 12:42:06;;;;;;;9.80;6.05;;;4.20;93.40;;;;;;5029521;28;20048;-85
2021/01/03 12:44:32;;;;;;;8.63;5.95;;;4.40;93.20;;;;;;5029526;28;20049;-86
2021/01/03 12:47:00;;;;;;;14.45;6.60;;;4.20;93.60;;;;;;5022318;28;20056;-83
2021/01/03 12:49:26;;;;;;;10.57;5.90;;;4.20;93.90;;;;;;5033791;28;20124;-83
2021/01/03 12:51:52;;;;;;;11.60;7.15;;;4.20;93.80;;;;;;5033952;28;20423;-83
2021/01/03 12:54:18;;;;;;;9.25;6.32;;;4.20;94.30;;;;;;5032375;28;20539;-83
2021/01/03 12:56:44;;;;;;;7.35;5.97;;;4.20;93.90;;;;;;5032163;28;20038;-84
2021/01/03 12:59:10;;;;;;;10.13;6.72;;;4.20;93.80;;;;;;5032453;28;20506;-83